Time;durP1;ratioP1;P1;durP2;ratioP2;P2;SDS_P1;SDS_P2;PMS_P1;PMS_P2;Temp;Humidity;BMP_temperature;BMP_pressure;BME280_temperature;BME280_humidity;BME280_pressure;Samples;Min_cycle;Max_cycle;Signal;HPM_P1;HPM_P2
2021/12/07 00:01:34;;;;;;;6.03;4.18;;;2.10;99.90;;;;;;7381063;32;20106;-58
2021/12/07 00:05:36;;;;;;;6.75;4.05;;;2.10;99.90;;;;;;7381801;32;20182;-58
2021/12/07 00:09:38;;;;;;;6.15;4.20;;;2.10;99.90;;;;;;7380455;32;20134;-59
2021/12/07 00:13:42;;;;;;;6.65;4.35;;;2.10;99.90;;;;;;7378585;32;20111;-59
2021/12/07 00:17:44;;;;;;;7.18;4.60;;;2.00;99.90;;;;;;7379918;32;20130;-59
2021/12/07 00:21:47;;;;;;;7.30;4.43;;;2.10;99.90;;;;;;7373148;32;20421;-59
2021/12/07 00:25:49;;;;;;;6.10;4.07;;;2.10;99.90;;;;;;7375590;32;20111;-59
2021/12/07 00:29:51;;;;;;;8.75;4.55;;;2.10;99.90;;;;;;7381835;32;20161;-59
2021/12/07 00:34:08;;;;;;;7.35;4.90;;;2.20;99.90;;;;;;7378685;32;20144;-59
2021/12/07 00:38:13;;;;;;;7.18;4.68;;;2.20;99.90;;;;;;7380933;32;20111;-59
2021/12/07 00:42:15;;;;;;;7.32;5.12;;;2.20;99.90;;;;;;7381699;32;20210;-59
2021/12/07 00:46:19;;;;;;;7.57;5.07;;;2.20;99.90;;;;;;7381780;32;20106;-58
2021/12/07 00:50:22;;;;;;;9.40;6.07;;;2.20;99.90;;;;;;7372570;32;20103;-60
2021/12/07 00:54:24;;;;;;;9.98;6.65;;;2.10;99.90;;;;;;7376330;32;20134;-59
2021/12/07 00:58:27;;;;;;;9.98;6.93;;;2.10;99.90;;;;;;7384101;32;20232;-58
2021/12/07 01:02:29;;;;;;;8.75;6.07;;;2.10;99.90;;;;;;7380650;32;20111;-59
2021/12/07 01:06:44;;;;;;;10.18;7.07;;;2.20;99.90;;;;;;7385246;32;20107;-59
2021/12/07 01:28:23;;;;;;;6.20;4.20;;;2.30;99.90;;;;;;7385306;32;20161;-59
2021/12/07 01:32:45;;;;;;;5.95;4.35;;;2.30;99.90;;;;;;7377581;32;20157;-59
2021/12/07 02:02:11;;;;;;;8.52;5.50;;;1.60;99.90;;;;;;7370660;32;20134;-59
2021/12/07 02:06:14;;;;;;;9.10;5.93;;;1.70;99.90;;;;;;7376652;32;20129;-59
2021/12/07 02:10:20;;;;;;;10.00;7.43;;;1.70;99.90;;;;;;7382081;32;20174;-59
2021/12/07 02:14:21;;;;;;;11.93;8.23;;;1.80;99.90;;;;;;7381988;32;20466;-59
2021/12/07 02:18:23;;;;;;;15.82;9.90;;;1.90;99.90;;;;;;7381738;32;20133;-59
2021/12/07 02:22:25;;;;;;;17.15;10.90;;;2.00;99.90;;;;;;7382685;32;20107;-59
2021/12/07 02:26:27;;;;;;;14.55;10.82;;;2.10;99.90;;;;;;7382546;32;20161;-59
2021/12/07 02:30:28;;;;;;;17.67;11.55;;;2.20;99.90;;;;;;7381956;32;20106;-59
2021/12/07 02:34:30;;;;;;;12.60;9.48;;;2.40;99.90;;;;;;7381652;32;20115;-59
2021/12/07 02:38:32;;;;;;;17.92;12.02;;;2.40;99.90;;;;;;7372903;32;20528;-59
2021/12/07 02:42:35;;;;;;;16.87;11.20;;;2.40;99.90;;;;;;7381809;32;20119;-59
2021/12/07 02:46:38;;;;;;;16.05;11.15;;;2.50;99.90;;;;;;7382105;32;20513;-59
2021/12/07 02:50:40;;;;;;;17.25;11.88;;;2.60;99.90;;;;;;7375976;32;20127;-59
2021/12/07 02:54:45;;;;;;;19.05;12.00;;;2.70;99.90;;;;;;7381001;32;20114;-59
2021/12/07 02:58:47;;;;;;;19.90;12.52;;;2.80;99.90;;;;;;7378013;32;20224;-59
2021/12/07 03:02:56;;;;;;;22.70;12.32;;;2.80;99.90;;;;;;7378827;32;20145;-59
2021/12/07 03:28:47;;;;;;;13.40;8.68;;;3.40;99.90;;;;;;7376973;32;20126;-58
2021/12/07 03:32:49;;;;;;;16.95;10.73;;;3.40;99.90;;;;;;7380022;32;20103;-58
2021/12/07 03:36:51;;;;;;;17.23;11.68;;;3.40;99.90;;;;;;7380509;32;20125;-58
2021/12/07 03:40:53;;;;;;;34.28;14.65;;;3.50;99.90;;;;;;7378695;32;20400;-58
2021/12/07 03:44:54;;;;;;;25.40;13.70;;;3.60;99.90;;;;;;7380532;32;20107;-58
2021/12/07 03:48:56;;;;;;;25.58;14.35;;;3.60;99.90;;;;;;7380518;32;20600;-58
2021/12/07 03:52:58;;;;;;;25.98;15.27;;;3.70;99.90;;;;;;7379200;32;20118;-57
2021/12/07 03:57:00;;;;;;;28.50;14.10;;;3.70;99.90;;;;;;7380034;32;20137;-58
2021/12/07 04:01:06;;;;;;;26.35;14.98;;;3.70;99.90;;;;;;7374107;32;20495;-58
2021/12/07 04:05:13;;;;;;;24.67;14.63;;;3.70;99.90;;;;;;7380366;32;20110;-58
2021/12/07 04:09:14;;;;;;;29.75;15.10;;;3.70;99.90;;;;;;7379968;32;20141;-58
2021/12/07 04:13:17;;;;;;;25.85;15.35;;;3.70;99.90;;;;;;7378303;32;20191;-58
2021/12/07 04:17:19;;;;;;;22.73;14.57;;;3.60;99.90;;;;;;7375984;32;20111;-58
2021/12/07 04:21:20;;;;;;;27.40;15.65;;;3.60;99.90;;;;;;7378652;32;20526;-58
2021/12/07 04:25:25;;;;;;;24.35;13.65;;;3.60;99.90;;;;;;7378334;32;20522;-59
2021/12/07 04:29:27;;;;;;;26.10;13.70;;;3.60;99.90;;;;;;7380147;32;20198;-58
2021/12/07 04:33:29;;;;;;;24.40;14.07;;;3.50;99.90;;;;;;7380511;32;20149;-58
2021/12/07 04:37:32;;;;;;;23.45;13.95;;;3.60;99.90;;;;;;7379903;32;20118;-58
2021/12/07 04:41:34;;;;;;;24.08;13.02;;;3.50;99.90;;;;;;7376613;32;20121;-58
2021/12/07 04:46:32;;;;;;;21.62;11.23;;;3.50;99.90;;;;;;7367220;32;20486;-58
2021/12/07 04:58:23;;;;;;;19.75;7.37;;;3.70;99.90;;;;;;7375447;32;20141;-58
2021/12/07 05:02:25;;;;;;;24.80;8.32;;;3.70;99.90;;;;;;7377776;32;20129;-58
2021/12/07 05:06:30;;;;;;;21.42;6.45;;;3.60;99.90;;;;;;7370575;32;20198;-58
2021/12/07 05:15:02;;;;;;;21.48;6.25;;;3.60;99.90;;;;;;7356725;32;20111;-58
2021/12/07 05:40:47;;;;;;;19.12;5.03;;;3.70;99.90;;;;;;7380163;32;20214;-59
2021/12/07 05:44:52;;;;;;;16.75;4.62;;;3.70;99.90;;;;;;7375832;32;20153;-59
2021/12/07 05:48:54;;;;;;;21.73;5.80;;;3.70;99.90;;;;;;7383133;32;20125;-57
2021/12/07 05:52:56;;;;;;;17.92;4.85;;;3.70;99.90;;;;;;7381470;32;20138;-58
2021/12/07 05:56:57;;;;;;;21.02;5.25;;;3.80;99.90;;;;;;7382463;32;20197;-58
2021/12/07 06:00:59;;;;;;;25.02;5.75;;;3.70;99.90;;;;;;7384279;32;20183;-58
2021/12/07 06:05:01;;;;;;;22.08;5.70;;;3.70;99.90;;;;;;7373825;32;20127;-58
2021/12/07 06:09:03;;;;;;;23.00;5.05;;;3.70;99.90;;;;;;7369361;32;20301;-58
2021/12/07 06:13:05;;;;;;;23.33;6.20;;;3.70;99.90;;;;;;7370986;32;20157;-58
2021/12/07 06:17:07;;;;;;;18.33;5.70;;;3.60;99.90;;;;;;7376189;32;20189;-58
2021/12/07 06:21:09;;;;;;;21.52;5.53;;;3.60;99.90;;;;;;7377593;32;20170;-58
2021/12/07 06:25:11;;;;;;;16.90;4.70;;;3.50;99.90;;;;;;7384582;32;20198;-59
2021/12/07 06:29:12;;;;;;;18.95;4.95;;;3.60;99.90;;;;;;7378067;32;20511;-59
2021/12/07 06:33:17;;;;;;;20.20;4.97;;;3.60;99.90;;;;;;7375288;32;20107;-58
2021/12/07 06:37:19;;;;;;;14.25;5.45;;;3.60;99.90;;;;;;7384132;32;20107;-58
2021/12/07 06:41:20;;;;;;;20.42;5.90;;;3.60;99.90;;;;;;7378099;32;20111;-59
2021/12/07 06:45:22;;;;;;;18.25;4.95;;;3.60;99.90;;;;;;7375793;32;20357;-59
2021/12/07 06:49:24;;;;;;;18.37;4.50;;;3.70;99.90;;;;;;7382753;32;20478;-58
2021/12/07 06:53:26;;;;;;;18.17;4.53;;;3.70;99.90;;;;;;7383493;32;20229;-58
2021/12/07 06:57:27;;;;;;;24.40;4.43;;;3.70;99.90;;;;;;7385024;32;20645;-59
2021/12/07 07:01:29;;;;;;;17.90;4.07;;;3.70;99.90;;;;;;7383559;32;20107;-59
2021/12/07 07:05:34;;;;;;;12.00;3.87;;;3.70;99.90;;;;;;7384577;32;20106;-57
2021/12/07 07:09:35;;;;;;;20.92;4.47;;;3.60;99.90;;;;;;7384003;32;20593;-58
2021/12/07 07:13:37;;;;;;;15.73;4.00;;;3.50;99.90;;;;;;7382347;32;20115;-60
2021/12/07 07:17:40;;;;;;;11.93;3.62;;;3.50;99.90;;;;;;7383743;32;20107;-58
2021/12/07 07:21:41;;;;;;;13.82;3.92;;;3.40;99.90;;;;;;7383335;32;20533;-59
2021/12/07 07:25:43;;;;;;;21.27;5.87;;;3.30;99.90;;;;;;7381868;32;20134;-58
2021/12/07 07:29:45;;;;;;;11.38;4.18;;;3.40;99.90;;;;;;7383211;32;20133;-58
2021/12/07 07:33:47;;;;;;;15.60;5.35;;;3.30;99.90;;;;;;7381533;32;20165;-58
2021/12/07 07:37:50;;;;;;;17.77;5.15;;;3.20;99.90;;;;;;7382363;32;20125;-58
2021/12/07 07:41:52;;;;;;;15.68;4.97;;;3.20;99.90;;;;;;7383394;32;20260;-58
2021/12/07 07:45:54;;;;;;;18.30;5.47;;;3.20;99.90;;;;;;7383487;32;20111;-58
2021/12/07 07:49:56;;;;;;;16.80;5.55;;;3.20;99.90;;;;;;7382399;32;20836;-59
2021/12/07 07:53:59;;;;;;;26.40;6.32;;;3.30;99.90;;;;;;7381070;32;20209;-58
2021/12/07 07:58:02;;;;;;;16.35;5.60;;;3.20;99.90;;;;;;7379941;32;20760;-58
2021/12/07 08:02:03;;;;;;;17.05;5.62;;;3.20;99.90;;;;;;7373469;32;20118;-58
2021/12/07 08:06:05;;;;;;;15.02;5.50;;;3.00;99.90;;;;;;7366021;32;20127;-59
2021/12/07 08:10:08;;;;;;;19.00;6.15;;;3.00;99.90;;;;;;7371368;32;20189;-58
2021/12/07 08:14:10;;;;;;;14.45;5.53;;;3.00;99.90;;;;;;7377390;32;20111;-58
2021/12/07 08:18:13;;;;;;;18.50;6.15;;;3.00;99.90;;;;;;7373011;32;20126;-58
2021/12/07 08:22:15;;;;;;;11.43;5.50;;;3.10;99.90;;;;;;7371986;32;20115;-58
2021/12/07 08:26:19;;;;;;;20.12;7.37;;;3.00;99.90;;;;;;7373066;32;20133;-58
2021/12/07 08:30:23;;;;;;;14.77;5.43;;;3.00;99.90;;;;;;7378968;32;20133;-58
2021/12/07 08:34:25;;;;;;;16.90;5.12;;;2.90;99.90;;;;;;7375086;32;20179;-58
2021/12/07 08:38:27;;;;;;;19.87;5.80;;;2.90;99.90;;;;;;7366822;32;20202;-58
2021/12/07 08:42:29;;;;;;;14.32;5.00;;;2.80;99.90;;;;;;7376228;32;20141;-58
2021/12/07 08:46:31;;;;;;;14.60;4.10;;;2.80;99.90;;;;;;7370008;32;20118;-58
2021/12/07 08:50:34;;;;;;;15.80;4.37;;;2.90;99.90;;;;;;7373873;32;20137;-58
2021/12/07 09:03:20;;;;;;;16.62;3.62;;;3.00;99.90;;;;;;7368978;32;20266;-58
2021/12/07 09:07:23;;;;;;;13.43;3.75;;;3.20;99.90;;;;;;7372910;32;20122;-58
2021/12/07 09:11:25;;;;;;;18.40;4.22;;;3.20;99.90;;;;;;7376427;32;20565;-58
2021/12/07 09:15:27;;;;;;;12.48;3.50;;;3.20;99.90;;;;;;7376218;32;20133;-58
2021/12/07 09:19:29;;;;;;;17.08;3.70;;;3.30;99.90;;;;;;7385139;32;20251;-58
2021/12/07 09:23:31;;;;;;;16.10;3.58;;;3.40;99.90;;;;;;7377967;32;20138;-58
2021/12/07 09:27:33;;;;;;;14.40;4.30;;;3.40;99.90;;;;;;7375179;32;20179;-59
2021/12/07 09:31:38;;;;;;;15.27;4.22;;;3.50;99.90;;;;;;7370164;32;20542;-59
2021/12/07 09:35:40;;;;;;;15.85;4.05;;;3.70;99.90;;;;;;7378465;32;20114;-58
2021/12/07 09:39:42;;;;;;;13.10;3.25;;;3.70;99.90;;;;;;7379006;32;20127;-58
2021/12/07 09:43:44;;;;;;;13.95;3.20;;;3.80;99.90;;;;;;7372914;32;20183;-58
2021/12/07 09:47:47;;;;;;;13.05;3.28;;;3.90;99.90;;;;;;7374280;32;20190;-59
2021/12/07 09:51:49;;;;;;;11.82;3.20;;;4.00;99.90;;;;;;7383450;32;20194;-59
2021/12/07 09:55:51;;;;;;;19.20;3.25;;;4.20;99.90;;;;;;7374864;32;20527;-59
2021/12/07 09:59:53;;;;;;;14.95;2.80;;;4.30;99.90;;;;;;7374308;32;20111;-59
2021/12/07 10:03:55;;;;;;;10.38;2.95;;;4.40;99.90;;;;;;7372240;32;20233;-59
2021/12/07 10:07:58;;;;;;;12.25;2.78;;;4.40;99.90;;;;;;7379813;32;20265;-59
2021/12/07 10:12:00;;;;;;;10.10;2.85;;;4.30;99.90;;;;;;7377256;32;20111;-60
2021/12/07 10:16:04;;;;;;;11.02;3.22;;;4.40;99.90;;;;;;7377860;32;20107;-59
2021/12/07 10:20:25;;;;;;;16.08;3.25;;;4.40;99.90;;;;;;7371403;32;20787;-59
2021/12/07 10:24:37;;;;;;;19.73;3.20;;;4.50;99.90;;;;;;7375725;32;20134;-59
2021/12/07 10:28:49;;;;;;;13.95;3.70;;;4.50;99.90;;;;;;7381583;32;20209;-59
2021/12/07 10:33:03;;;;;;;18.10;3.67;;;4.50;99.90;;;;;;7372205;32;20108;-59
2021/12/07 10:37:15;;;;;;;18.90;3.83;;;4.50;99.90;;;;;;7370825;32;22577;-59
2021/12/07 10:41:21;;;;;;;17.52;3.47;;;4.60;99.90;;;;;;7382793;32;20110;-59
2021/12/07 10:45:29;;;;;;;15.15;3.28;;;4.60;99.90;;;;;;7376538;32;20496;-60
2021/12/07 10:49:32;;;;;;;12.63;3.40;;;4.60;99.90;;;;;;7372389;32;20126;-60
2021/12/07 10:53:36;;;;;;;19.55;3.78;;;4.60;99.90;;;;;;7372283;32;20194;-60
2021/12/07 10:57:44;;;;;;;17.00;3.67;;;4.60;99.90;;;;;;7376769;32;20133;-60
2021/12/07 11:01:49;;;;;;;9.70;2.65;;;4.80;99.90;;;;;;7371254;32;20103;-60
2021/12/07 11:05:54;;;;;;;16.70;3.12;;;4.80;99.90;;;;;;7373097;32;20119;-59
2021/12/07 11:10:16;;;;;;;16.98;3.60;;;4.80;99.90;;;;;;7377041;32;20200;-60
2021/12/07 11:14:21;;;;;;;16.00;3.58;;;4.90;99.90;;;;;;7372994;32;20491;-58
2021/12/07 11:18:25;;;;;;;16.15;3.83;;;5.10;99.90;;;;;;7376921;32;20164;-58
2021/12/07 11:22:33;;;;;;;16.77;3.50;;;5.10;99.90;;;;;;7373407;32;20108;-58
2021/12/07 11:30:57;;;;;;;14.55;3.05;;;5.50;99.90;;;;;;7374277;32;20148;-58
2021/12/07 11:35:22;;;;;;;15.65;3.53;;;5.60;99.90;;;;;;7367398;32;20202;-58
2021/12/07 11:39:32;;;;;;;16.80;3.20;;;5.70;99.90;;;;;;7377609;32;20131;-59
2021/12/07 11:43:48;;;;;;;11.68;3.03;;;5.80;99.90;;;;;;7371374;32;20111;-58
2021/12/07 11:47:56;;;;;;;14.40;2.83;;;5.80;99.90;;;;;;7374211;32;20181;-59
2021/12/07 11:52:03;;;;;;;13.50;3.40;;;5.80;99.90;;;;;;7378450;32;20498;-59
2021/12/07 11:56:05;;;;;;;16.12;4.03;;;5.80;99.90;;;;;;7369944;32;20198;-59
2021/12/07 12:00:11;;;;;;;9.43;3.22;;;5.80;99.90;;;;;;7376495;32;20111;-59
2021/12/07 12:04:14;;;;;;;12.25;2.55;;;5.80;99.90;;;;;;7362355;32;20149;-59
2021/12/07 12:08:19;;;;;;;10.98;2.53;;;5.80;99.90;;;;;;7370103;32;20163;-58
2021/12/07 12:12:46;;;;;;;12.30;2.53;;;5.70;99.90;;;;;;7368734;32;20182;-59
2021/12/07 12:17:03;;;;;;;9.63;2.03;;;5.70;99.90;;;;;;7371682;32;20107;-58
2021/12/07 12:21:26;;;;;;;11.23;2.33;;;5.60;99.90;;;;;;7376294;32;22854;-59
2021/12/07 12:25:29;;;;;;;12.75;2.72;;;5.60;99.90;;;;;;7368839;32;20252;-60
2021/12/07 12:29:33;;;;;;;14.85;2.55;;;5.70;99.90;;;;;;7372342;32;20722;-59
2021/12/07 12:33:55;;;;;;;10.15;2.22;;;5.70;99.90;;;;;;7371067;32;20107;-59
2021/12/07 12:37:58;;;;;;;12.75;2.85;;;5.80;99.90;;;;;;7378132;32;20750;-59
2021/12/07 12:42:00;;;;;;;10.43;2.25;;;5.80;99.90;;;;;;7370067;32;20197;-59
2021/12/07 12:46:03;;;;;;;9.15;1.75;;;5.90;99.90;;;;;;7374784;32;20111;-58
2021/12/07 12:50:14;;;;;;;9.95;2.00;;;5.90;99.90;;;;;;7376133;32;20126;-59
2021/12/07 12:54:19;;;;;;;6.57;1.50;;;6.00;99.90;;;;;;7379009;32;20149;-59
2021/12/07 12:58:24;;;;;;;8.88;1.25;;;5.90;99.90;;;;;;7376517;32;20107;-59
2021/12/07 13:02:28;;;;;;;8.80;1.55;;;5.90;99.90;;;;;;7376324;32;20198;-59
2021/12/07 13:06:43;;;;;;;8.25;1.50;;;6.00;99.90;;;;;;7382418;32;20752;-61
2021/12/07 13:11:04;;;;;;;8.73;1.73;;;6.00;99.90;;;;;;7376712;32;20138;-61
2021/12/07 13:15:11;;;;;;;4.07;1.27;;;5.90;99.90;;;;;;7375036;32;20125;-60
2021/12/07 13:19:13;;;;;;;11.50;1.85;;;5.80;99.90;;;;;;7374400;32;20511;-60
2021/12/07 13:23:14;;;;;;;15.73;3.08;;;5.90;99.90;;;;;;7372366;32;20099;-60
2021/12/07 13:27:16;;;;;;;9.20;1.77;;;5.90;99.90;;;;;;7377099;32;20941;-60
2021/12/07 13:31:18;;;;;;;5.35;1.50;;;6.00;99.90;;;;;;7380794;32;20134;-60
2021/12/07 13:35:30;;;;;;;8.80;1.17;;;6.00;99.90;;;;;;7384064;32;20721;-58
2021/12/07 13:39:44;;;;;;;4.47;1.33;;;5.90;99.90;;;;;;7384161;32;20111;-58
2021/12/07 13:43:49;;;;;;;7.45;1.55;;;5.80;99.90;;;;;;7386244;32;20111;-61
2021/12/07 13:47:52;;;;;;;6.50;1.45;;;5.70;99.90;;;;;;7384497;32;20149;-60
2021/12/07 13:51:54;;;;;;;7.60;1.92;;;5.60;99.90;;;;;;7371882;32;20107;-60
2021/12/07 13:55:56;;;;;;;7.70;1.20;;;5.50;99.90;;;;;;7381929;32;20135;-60
2021/12/07 13:59:59;;;;;;;6.15;1.30;;;5.40;99.90;;;;;;7383587;32;20150;-60
2021/12/07 14:04:03;;;;;;;6.50;2.08;;;5.40;99.90;;;;;;7379551;32;20586;-60
2021/12/07 14:08:07;;;;;;;5.35;0.90;;;5.40;99.90;;;;;;7379934;32;20107;-59
2021/12/07 14:12:09;;;;;;;6.00;1.35;;;5.40;99.90;;;;;;7381737;32;20130;-60
2021/12/07 14:16:13;;;;;;;7.35;1.37;;;5.20;99.90;;;;;;7378952;32;20521;-59
2021/12/07 14:20:29;;;;;;;10.68;1.87;;;5.10;99.90;;;;;;7383981;32;20206;-60
2021/12/07 14:24:30;;;;;;;7.87;1.33;;;5.00;99.90;;;;;;7379872;32;20197;-60
2021/12/07 14:28:46;;;;;;;8.40;1.70;;;5.00;99.90;;;;;;7384275;32;20145;-59
2021/12/07 14:32:48;;;;;;;6.25;1.27;;;4.90;99.90;;;;;;7383090;32;20107;-60
2021/12/07 14:36:50;;;;;;;5.80;1.23;;;4.90;99.90;;;;;;7384152;32;20190;-60
2021/12/07 14:40:51;;;;;;;7.35;1.35;;;4.80;99.90;;;;;;7380490;32;20118;-58
2021/12/07 14:44:58;;;;;;;7.55;1.80;;;4.80;99.90;;;;;;7381075;32;20107;-59
2021/12/07 14:49:00;;;;;;;8.25;1.25;;;4.60;99.90;;;;;;7374929;32;20672;-62
2021/12/07 14:53:01;;;;;;;4.53;1.10;;;4.60;99.90;;;;;;7377424;32;20531;-59
2021/12/07 14:57:03;;;;;;;4.78;1.00;;;4.50;99.90;;;;;;7379163;32;20111;-60
2021/12/07 15:01:10;;;;;;;6.35;1.15;;;4.40;99.90;;;;;;7373222;32;20119;-59
2021/12/07 15:05:12;;;;;;;;;;;4.30;99.90;;;;;;7374946;32;20533;-59
2021/12/07 15:09:15;;;;;;;6.35;1.15;;;4.30;99.90;;;;;;7371915;32;20025;-58
2021/12/07 15:13:17;;;;;;;4.53;1.17;;;4.20;99.90;;;;;;7372733;32;20130;-58
2021/12/07 15:17:19;;;;;;;7.20;1.50;;;4.10;99.90;;;;;;7376162;32;20566;-59
2021/12/07 15:21:23;;;;;;;8.70;1.10;;;4.10;99.90;;;;;;7382895;32;20119;-58
2021/12/07 15:25:24;;;;;;;5.80;1.50;;;4.10;99.90;;;;;;7383024;32;20111;-58
2021/12/07 15:29:29;;;;;;;3.20;1.05;;;4.20;99.90;;;;;;7374812;32;20225;-59
2021/12/07 15:33:33;;;;;;;5.75;1.30;;;4.20;99.90;;;;;;7377671;32;20254;-59
2021/12/07 15:37:35;;;;;;;13.50;1.42;;;4.20;99.90;;;;;;7383793;32;20126;-59
2021/12/07 15:41:40;;;;;;;4.97;1.10;;;4.30;99.90;;;;;;7382350;32;20478;-59
2021/12/07 15:45:45;;;;;;;6.40;1.20;;;4.10;99.90;;;;;;7367115;32;20189;-58
2021/12/07 15:49:56;;;;;;;4.53;1.40;;;4.00;99.90;;;;;;7366408;32;20186;-59
2021/12/07 15:53:58;;;;;;;6.00;1.15;;;3.90;99.90;;;;;;7367000;32;20193;-59
2021/12/07 15:58:20;;;;;;;5.07;1.65;;;3.80;99.90;;;;;;7371687;32;20130;-59
2021/12/07 16:02:23;;;;;;;8.05;1.52;;;3.70;99.90;;;;;;7375419;32;20133;-58
2021/12/07 16:06:28;;;;;;;6.95;1.17;;;3.70;99.90;;;;;;7377695;32;20110;-58
2021/12/07 16:10:29;;;;;;;7.15;1.30;;;3.70;99.90;;;;;;7367538;32;20111;-59
2021/12/07 16:14:31;;;;;;;8.07;1.12;;;3.60;99.90;;;;;;7379255;32;20515;-58
2021/12/07 16:18:54;;;;;;;9.43;1.33;;;3.60;99.90;;;;;;7374451;32;20115;-59
2021/12/07 16:22:56;;;;;;;4.45;1.02;;;3.50;99.90;;;;;;7378457;32;20129;-59
2021/12/07 16:26:58;;;;;;;12.02;1.55;;;3.40;99.90;;;;;;7379576;32;20224;-60
2021/12/07 16:30:59;;;;;;;4.43;1.23;;;3.40;99.90;;;;;;7376610;32;20566;-60
2021/12/07 16:35:03;;;;;;;4.82;1.25;;;3.50;99.90;;;;;;7375056;32;20228;-60
2021/12/07 16:39:05;;;;;;;4.47;1.20;;;3.50;99.90;;;;;;7373284;32;20103;-60
2021/12/07 16:43:07;;;;;;;5.72;1.50;;;3.50;99.90;;;;;;7377484;32;20732;-60
2021/12/07 16:47:09;;;;;;;3.80;1.35;;;3.50;99.90;;;;;;7377070;32;20115;-60
2021/12/07 16:51:11;;;;;;;5.53;1.23;;;3.50;99.90;;;;;;7377398;32;20671;-60
2021/12/07 16:55:17;;;;;;;9.10;1.05;;;3.50;99.90;;;;;;7373389;32;20150;-59
2021/12/07 16:59:19;;;;;;;3.92;1.20;;;3.50;99.90;;;;;;7373358;32;20099;-59
2021/12/07 17:03:22;;;;;;;6.97;1.10;;;3.40;99.90;;;;;;7374706;32;21885;-60
2021/12/07 17:07:24;;;;;;;6.00;1.23;;;3.40;99.90;;;;;;7369365;32;20134;-59
2021/12/07 17:11:25;;;;;;;5.57;1.12;;;3.50;99.90;;;;;;7376612;32;20110;-60
2021/12/07 17:15:27;;;;;;;3.87;1.70;;;3.50;99.90;;;;;;7377603;32;21165;-60
2021/12/07 17:19:29;;;;;;;7.28;2.12;;;3.60;99.90;;;;;;7376745;32;20112;-59
2021/12/07 17:23:31;;;;;;;4.05;1.55;;;3.60;99.90;;;;;;7368593;32;20133;-59
2021/12/07 17:27:33;;;;;;;6.75;1.33;;;3.70;99.90;;;;;;7377034;32;20186;-59
2021/12/07 17:31:34;;;;;;;6.45;1.05;;;3.70;99.90;;;;;;7371930;32;20095;-59
2021/12/07 17:35:36;;;;;;;9.77;1.30;;;3.70;99.90;;;;;;7379362;32;20745;-59
2021/12/07 17:39:39;;;;;;;8.15;1.33;;;3.80;99.90;;;;;;7378187;32;22096;-60
2021/12/07 17:43:41;;;;;;;4.10;1.52;;;3.80;99.90;;;;;;7378973;32;20202;-59
2021/12/07 17:47:43;;;;;;;5.00;1.12;;;3.90;99.90;;;;;;7384027;32;20573;-59
2021/12/07 17:51:45;;;;;;;5.93;1.33;;;3.90;99.90;;;;;;7378036;32;20103;-60
2021/12/07 17:55:50;;;;;;;4.60;0.95;;;3.90;99.90;;;;;;7381247;32;20522;-60
2021/12/07 17:59:52;;;;;;;3.83;1.30;;;3.90;99.90;;;;;;7383533;32;20582;-59
2021/12/07 18:03:54;;;;;;;6.18;1.73;;;3.90;99.90;;;;;;7378714;32;20482;-59
2021/12/07 18:07:56;;;;;;;7.07;1.42;;;4.00;99.90;;;;;;7385580;32;20138;-59
2021/12/07 18:11:57;;;;;;;6.15;1.67;;;3.90;99.90;;;;;;7378285;32;20546;-59
2021/12/07 18:15:59;;;;;;;6.12;1.50;;;3.90;99.90;;;;;;7374869;32;20115;-59
2021/12/07 18:20:02;;;;;;;6.55;2.05;;;4.00;99.90;;;;;;7372227;32;20222;-59
2021/12/07 18:24:04;;;;;;;6.03;1.60;;;4.00;99.90;;;;;;7369009;32;20679;-59
2021/12/07 18:28:06;;;;;;;10.60;2.12;;;4.00;99.90;;;;;;7365569;32;20552;-59
2021/12/07 18:32:07;;;;;;;9.63;1.73;;;4.10;99.90;;;;;;7380038;32;20126;-59
2021/12/07 18:36:10;;;;;;;4.97;1.55;;;4.20;99.90;;;;;;7384986;32;20111;-59
2021/12/07 18:40:17;;;;;;;6.03;1.67;;;4.20;99.90;;;;;;7370316;32;20538;-60
2021/12/07 18:44:19;;;;;;;;;;;4.20;99.90;;;;;;7382468;32;20454;-59
2021/12/07 18:48:21;;;;;;;5.53;1.50;;;4.20;99.90;;;;;;7381751;32;20373;-59
2021/12/07 18:52:23;;;;;;;5.28;1.35;;;4.20;99.90;;;;;;7379375;32;20133;-60
2021/12/07 18:56:25;;;;;;;6.00;1.52;;;4.20;99.90;;;;;;7380821;32;20129;-59
2021/12/07 19:00:27;;;;;;;4.65;1.60;;;4.30;99.90;;;;;;7372915;32;20133;-59
2021/12/07 19:04:28;;;;;;;7.28;1.85;;;4.30;99.90;;;;;;7370428;32;20202;-59
2021/12/07 19:08:30;;;;;;;5.10;1.70;;;4.30;99.90;;;;;;7377024;32;20567;-59
2021/12/07 19:12:32;;;;;;;6.93;1.77;;;4.30;99.90;;;;;;7376801;32;20103;-59
2021/12/07 19:16:34;;;;;;;6.43;1.65;;;4.30;99.90;;;;;;7382588;32;20115;-59
2021/12/07 19:20:36;;;;;;;5.72;1.40;;;4.30;99.90;;;;;;7377489;32;20114;-59
2021/12/07 19:24:37;;;;;;;5.40;1.37;;;4.40;99.90;;;;;;7370331;32;20161;-59
2021/12/07 19:28:40;;;;;;;4.03;1.50;;;4.40;99.90;;;;;;7374535;32;20126;-59
2021/12/07 19:32:47;;;;;;;5.65;1.30;;;4.40;99.90;;;;;;7367395;32;20292;-59
2021/12/07 19:36:49;;;;;;;5.43;1.65;;;4.40;99.90;;;;;;7374961;32;20115;-60
2021/12/07 19:40:53;;;;;;;5.85;1.20;;;4.40;99.90;;;;;;7381268;32;20110;-59
2021/12/07 19:44:55;;;;;;;4.03;1.33;;;4.50;99.90;;;;;;7367214;32;20149;-59
2021/12/07 19:48:57;;;;;;;4.57;1.40;;;4.50;99.90;;;;;;7374972;32;20102;-59
2021/12/07 19:52:59;;;;;;;4.03;1.35;;;4.60;99.90;;;;;;7371869;32;20111;-59
2021/12/07 19:57:01;;;;;;;6.00;1.48;;;4.60;99.90;;;;;;7371343;32;20214;-59
2021/12/07 20:01:06;;;;;;;7.65;1.67;;;4.60;99.90;;;;;;7375637;32;20115;-59
2021/12/07 20:05:11;;;;;;;7.00;1.65;;;4.50;99.90;;;;;;7370193;32;20126;-59
2021/12/07 20:09:14;;;;;;;7.70;1.25;;;4.60;99.90;;;;;;7374041;32;20108;-59
2021/12/07 20:13:17;;;;;;;5.47;1.30;;;4.60;99.90;;;;;;7371788;32;20115;-60
2021/12/07 20:17:19;;;;;;;4.05;0.93;;;4.50;99.90;;;;;;7377502;32;20107;-60
2021/12/07 20:21:21;;;;;;;8.23;1.87;;;4.50;99.90;;;;;;7374000;32;20210;-59
2021/12/07 20:25:23;;;;;;;7.40;2.00;;;4.50;99.90;;;;;;7381023;32;20190;-59
2021/12/07 20:29:24;;;;;;;7.80;1.40;;;4.40;99.90;;;;;;7380808;32;20766;-60
2021/12/07 20:33:26;;;;;;;4.80;1.45;;;4.50;99.90;;;;;;7375722;32;20708;-59
2021/12/07 20:37:35;;;;;;;7.03;1.90;;;4.60;99.90;;;;;;7378211;32;20190;-59
2021/12/07 20:41:38;;;;;;;6.68;1.70;;;4.60;99.90;;;;;;7370918;32;20111;-59
2021/12/07 20:45:44;;;;;;;6.28;1.55;;;4.60;99.90;;;;;;7376722;32;20145;-59
2021/12/07 20:49:45;;;;;;;3.85;1.23;;;4.60;99.90;;;;;;7382616;32;20107;-59
2021/12/07 20:53:49;;;;;;;7.75;1.55;;;4.60;99.90;;;;;;7381092;32;20133;-60
2021/12/07 20:57:51;;;;;;;6.50;1.52;;;4.70;99.90;;;;;;7364585;32;20137;-60
2021/12/07 21:01:53;;;;;;;6.57;1.70;;;4.80;99.90;;;;;;7369348;32;20236;-60
2021/12/07 21:05:55;;;;;;;5.30;1.48;;;4.80;99.90;;;;;;7365695;32;20246;-60
2021/12/07 21:09:56;;;;;;;5.95;1.55;;;4.80;99.90;;;;;;7378791;32;20160;-61
2021/12/07 21:13:58;;;;;;;8.35;1.60;;;4.80;99.90;;;;;;7370770;32;20123;-60
2021/12/07 21:18:00;;;;;;;4.97;1.33;;;4.80;99.90;;;;;;7387341;32;20118;-59
2021/12/07 21:22:03;;;;;;;7.07;2.00;;;4.80;99.90;;;;;;7387849;32;20594;-59
2021/12/07 21:26:06;;;;;;;6.82;1.70;;;4.90;99.90;;;;;;7375739;32;20107;-59
2021/12/07 21:30:28;;;;;;;5.32;1.33;;;4.90;99.90;;;;;;7388805;32;20467;-60
2021/12/07 21:34:30;;;;;;;9.25;1.20;;;4.90;99.90;;;;;;7383576;32;20115;-59
2021/12/07 21:38:31;;;;;;;6.07;1.55;;;4.90;99.90;;;;;;7373572;32;20108;-60
2021/12/07 21:42:33;;;;;;;6.60;1.52;;;4.90;99.90;;;;;;7376147;32;21313;-60
2021/12/07 21:46:35;;;;;;;7.22;1.40;;;5.00;99.90;;;;;;7382375;32;20136;-59
2021/12/07 21:50:36;;;;;;;5.57;1.30;;;4.90;99.90;;;;;;7384438;32;20830;-60
2021/12/07 21:54:38;;;;;;;4.70;1.55;;;5.00;99.90;;;;;;7381731;32;20137;-60
2021/12/07 21:58:40;;;;;;;7.18;1.25;;;5.00;99.90;;;;;;7372120;32;20233;-60
2021/12/07 22:02:42;;;;;;;3.45;1.15;;;5.00;99.90;;;;;;7380063;32;20130;-59
2021/12/07 22:06:45;;;;;;;5.87;1.42;;;5.00;99.90;;;;;;7374877;32;20115;-60
2021/12/07 22:10:47;;;;;;;7.50;1.25;;;5.00;99.90;;;;;;7382759;32;20107;-59
2021/12/07 22:14:48;;;;;;;5.93;1.40;;;4.90;99.90;;;;;;7375346;32;20133;-60
2021/12/07 22:18:50;;;;;;;3.75;1.23;;;4.70;99.90;;;;;;7372404;32;20149;-60
2021/12/07 22:22:52;;;;;;;5.75;1.17;;;4.60;99.90;;;;;;7382632;32;20534;-60
2021/12/07 22:26:55;;;;;;;4.35;1.30;;;4.50;99.90;;;;;;7383182;32;20127;-59
2021/12/07 22:30:57;;;;;;;5.07;1.15;;;4.20;99.90;;;;;;7382845;32;20118;-59
2021/12/07 22:34:59;;;;;;;5.05;1.62;;;4.10;99.90;;;;;;7371383;32;20582;-60
2021/12/07 22:39:01;;;;;;;4.62;1.20;;;3.90;99.90;;;;;;7384762;32;20111;-59
2021/12/07 22:43:05;;;;;;;4.53;1.05;;;3.90;99.90;;;;;;7375927;32;20286;-60
2021/12/07 22:47:07;;;;;;;6.30;1.33;;;3.80;99.90;;;;;;7376237;32;20111;-60
2021/12/07 22:51:09;;;;;;;3.25;1.12;;;3.80;99.90;;;;;;7370829;32;20425;-59
2021/12/07 22:55:15;;;;;;;5.97;1.05;;;3.80;99.90;;;;;;7374322;32;20201;-60
2021/12/07 22:59:17;;;;;;;7.40;1.30;;;3.80;99.90;;;;;;7371327;32;20479;-59
2021/12/07 23:03:20;;;;;;;5.40;1.10;;;3.80;99.90;;;;;;7368867;32;20133;-60
2021/12/07 23:07:22;;;;;;;3.10;0.90;;;3.90;99.90;;;;;;7384621;32;20190;-58
2021/12/07 23:11:24;;;;;;;6.70;1.25;;;3.80;99.90;;;;;;7375957;32;20127;-58